Time;durP1;ratioP1;P1;durP2;ratioP2;P2;SDS_P1;SDS_P2;PMS_P1;PMS_P2;Temp;Humidity;BMP_temperature;BMP_pressure;BME280_temperature;BME280_humidity;BME280_pressure;Samples;Min_cycle;Max_cycle;Signal;HPM_P1;HPM_P2
2023/08/11 00:00:25;;;;;;;11.88;6.65;;;19.70;99.90;;;;;;5013772;28;20115;-75
2023/08/11 00:02:51;;;;;;;6.13;5.30;;;19.70;99.90;;;;;;5013883;28;20084;-76
2023/08/11 00:05:17;;;;;;;11.02;6.05;;;19.70;99.90;;;;;;5013773;28;20096;-75
2023/08/11 00:07:45;;;;;;;8.25;5.95;;;19.80;99.90;;;;;;5013804;28;20021;-76
2023/08/11 00:10:12;;;;;;;9.68;6.20;;;19.80;99.90;;;;;;5027858;28;20044;-76
2023/08/11 00:12:39;;;;;;;8.73;5.50;;;19.80;99.90;;;;;;5021594;28;20045;-76
2023/08/11 00:15:06;;;;;;;12.60;6.20;;;19.80;99.90;;;;;;5013575;28;20026;-75
2023/08/11 00:17:32;;;;;;;6.63;5.50;;;19.70;99.90;;;;;;5012806;28;20485;-76
2023/08/11 00:19:58;;;;;;;7.68;6.05;;;19.70;99.90;;;;;;5013657;28;20364;-75
2023/08/11 00:22:24;;;;;;;12.32;5.80;;;19.70;99.90;;;;;;5013650;28;20028;-76
2023/08/11 00:24:50;;;;;;;14.52;6.25;;;19.60;99.90;;;;;;5014119;28;20410;-76
2023/08/11 00:27:15;;;;;;;10.25;7.00;;;19.60;99.90;;;;;;5012251;28;20030;-75
2023/08/11 00:29:41;;;;;;;8.18;6.03;;;19.60;99.90;;;;;;5011831;28;20048;-77
2023/08/11 00:32:07;;;;;;;10.25;6.78;;;19.60;99.90;;;;;;5013490;28;20379;-77
2023/08/11 00:34:33;;;;;;;11.20;6.00;;;19.60;99.90;;;;;;5013412;28;20025;-75
2023/08/11 00:36:58;;;;;;;10.77;6.97;;;19.60;99.90;;;;;;5013465;28;20053;-77
2023/08/11 00:39:24;;;;;;;13.32;7.97;;;19.60;99.90;;;;;;5012995;28;20412;-75
2023/08/11 00:41:50;;;;;;;10.27;8.75;;;19.50;99.90;;;;;;5013265;28;20034;-75
2023/08/11 00:44:16;;;;;;;11.88;7.72;;;19.50;99.90;;;;;;5011730;28;20109;-77
2023/08/11 00:46:43;;;;;;;12.30;7.10;;;19.50;99.90;;;;;;5013195;28;20101;-76
2023/08/11 00:49:10;;;;;;;12.75;6.97;;;19.40;99.90;;;;;;5013093;28;20039;-76
2023/08/11 00:51:36;;;;;;;11.60;7.00;;;19.40;99.90;;;;;;5013076;28;20022;-76
2023/08/11 00:54:02;;;;;;;10.40;6.95;;;19.40;99.90;;;;;;5013187;28;20386;-76
2023/08/11 00:56:29;;;;;;;11.20;6.82;;;19.40;99.90;;;;;;5013314;28;20104;-76
2023/08/11 00:58:54;;;;;;;7.57;6.77;;;19.30;99.90;;;;;;4973357;28;1139581;-75
2023/08/11 01:01:20;;;;;;;11.23;7.43;;;19.30;99.90;;;;;;5014076;28;20104;-76
2023/08/11 01:03:47;;;;;;;8.52;6.93;;;19.30;99.90;;;;;;5014089;28;20028;-76
2023/08/11 01:06:34;;;;;;;13.05;7.97;;;19.20;99.90;;;;;;5013982;28;20026;-76
2023/08/11 01:09:28;;;;;;;14.02;6.63;;;19.20;99.90;;;;;;5019521;28;20029;-76
2023/08/11 01:12:25;;;;;;;10.85;6.80;;;19.30;99.90;;;;;;5028617;28;20037;-76
2023/08/11 01:15:13;;;;;;;14.55;6.80;;;19.20;99.90;;;;;;5033518;28;20505;-75
2023/08/11 01:17:41;;;;;;;10.43;6.40;;;19.20;99.90;;;;;;5023037;28;20030;-75
2023/08/11 01:20:10;;;;;;;7.57;6.35;;;19.10;99.90;;;;;;5012465;28;20467;-76
2023/08/11 01:22:39;;;;;;;11.52;7.07;;;19.10;99.90;;;;;;5013901;28;20018;-76
2023/08/11 01:25:09;;;;;;;7.53;5.82;;;19.00;99.90;;;;;;5013904;28;20041;-76
2023/08/11 01:27:43;;;;;;;11.55;6.60;;;19.00;99.90;;;;;;5013303;28;20061;-75
2023/08/11 01:30:13;;;;;;;11.30;6.90;;;19.00;99.90;;;;;;5012598;28;20034;-76
2023/08/11 01:32:39;;;;;;;8.48;6.93;;;19.00;99.90;;;;;;5013786;28;20037;-75
2023/08/11 01:35:06;;;;;;;9.48;7.40;;;19.00;99.90;;;;;;5013575;28;20025;-75
2023/08/11 01:37:32;;;;;;;9.35;8.18;;;19.00;99.90;;;;;;5013514;28;20030;-77
2023/08/11 01:39:58;;;;;;;11.73;8.55;;;19.10;99.90;;;;;;5013274;28;20032;-77
2023/08/11 01:42:24;;;;;;;12.38;9.20;;;19.10;99.90;;;;;;5021553;28;20033;-77
2023/08/11 01:44:51;;;;;;;8.43;7.15;;;19.10;99.90;;;;;;5041947;28;20108;-78
2023/08/11 01:47:18;;;;;;;9.77;7.72;;;19.00;99.90;;;;;;5031522;28;20032;-77
2023/08/11 01:49:45;;;;;;;7.35;6.35;;;19.00;99.90;;;;;;5032522;28;20536;-77
2023/08/11 01:52:11;;;;;;;11.18;6.93;;;19.00;99.90;;;;;;5031771;28;20467;-77
2023/08/11 01:54:37;;;;;;;11.15;7.43;;;19.00;99.90;;;;;;5032857;28;20029;-77
2023/08/11 01:57:05;;;;;;;12.00;7.82;;;18.90;99.90;;;;;;5032847;28;20026;-77
2023/08/11 01:59:30;;;;;;;11.27;7.47;;;18.90;99.90;;;;;;5032629;28;20029;-77
2023/08/11 02:01:56;;;;;;;11.82;7.18;;;18.70;99.90;;;;;;5031460;28;20017;-76
2023/08/11 02:04:22;;;;;;;8.52;7.68;;;18.60;99.90;;;;;;5032513;28;20371;-77
2023/08/11 02:06:49;;;;;;;11.15;7.40;;;18.60;99.90;;;;;;5032766;28;20595;-76
2023/08/11 02:09:14;;;;;;;17.42;8.20;;;18.50;99.90;;;;;;5032451;28;20033;-77
2023/08/11 02:11:40;;;;;;;12.13;6.85;;;18.50;99.90;;;;;;5032274;28;20083;-76
2023/08/11 02:14:06;;;;;;;13.10;6.95;;;18.60;99.90;;;;;;5032747;28;20033;-76
2023/08/11 02:16:32;;;;;;;16.15;7.32;;;18.60;99.90;;;;;;5032468;28;20032;-76
2023/08/11 02:18:58;;;;;;;13.30;7.75;;;18.60;99.90;;;;;;5031081;28;20026;-76
2023/08/11 02:21:26;;;;;;;11.25;9.30;;;18.60;99.90;;;;;;5032465;28;20028;-76
2023/08/11 02:23:52;;;;;;;14.20;9.18;;;18.60;99.90;;;;;;5031198;28;20497;-76
2023/08/11 02:26:17;;;;;;;13.40;9.13;;;18.60;99.90;;;;;;5032127;28;20025;-76
2023/08/11 02:28:43;;;;;;;12.82;10.65;;;18.60;99.90;;;;;;5032155;28;20026;-76
2023/08/11 02:31:09;;;;;;;11.13;9.88;;;18.60;99.90;;;;;;5032291;28;20112;-77
2023/08/11 02:33:35;;;;;;;15.38;11.40;;;18.60;99.90;;;;;;5032517;28;20026;-76
2023/08/11 02:36:02;;;;;;;18.05;10.77;;;18.60;99.90;;;;;;5032232;28;20048;-76
2023/08/11 02:38:28;;;;;;;15.95;9.98;;;18.60;99.90;;;;;;5032075;28;20029;-76
2023/08/11 02:40:53;;;;;;;10.60;8.60;;;18.50;99.90;;;;;;5029497;28;20026;-76
2023/08/11 02:43:19;;;;;;;11.25;8.23;;;18.50;99.90;;;;;;5032366;28;20033;-76
2023/08/11 02:45:46;;;;;;;13.27;7.60;;;18.50;99.90;;;;;;5032114;28;20022;-77
2023/08/11 02:48:12;;;;;;;15.93;7.65;;;18.50;99.90;;;;;;5047483;28;20044;-77
2023/08/11 02:50:37;;;;;;;10.93;7.90;;;18.60;99.90;;;;;;5031951;28;20034;-77
2023/08/11 02:53:04;;;;;;;12.15;7.55;;;18.60;99.90;;;;;;5032389;28;20032;-76
2023/08/11 02:55:30;;;;;;;9.52;8.43;;;18.50;99.90;;;;;;5031790;28;20022;-76
2023/08/11 02:57:56;;;;;;;12.35;8.30;;;18.50;99.90;;;;;;5030807;28;20080;-77
2023/08/11 03:00:22;;;;;;;13.52;9.23;;;18.60;99.90;;;;;;5031763;28;20370;-77
2023/08/11 03:02:47;;;;;;;16.80;9.20;;;18.50;99.90;;;;;;5032114;28;20032;-77
2023/08/11 03:05:15;;;;;;;15.68;8.77;;;18.50;99.90;;;;;;5032210;28;20025;-77
2023/08/11 03:07:41;;;;;;;14.82;9.07;;;18.50;99.90;;;;;;5031871;28;20071;-76
2023/08/11 03:10:11;;;;;;;15.75;9.48;;;18.30;99.90;;;;;;5031523;28;20083;-76
2023/08/11 03:12:37;;;;;;;13.32;9.50;;;18.30;99.90;;;;;;5031904;28;20057;-76
2023/08/11 03:15:08;;;;;;;18.42;9.23;;;18.30;99.90;;;;;;5031836;28;20033;-76
2023/08/11 03:17:37;;;;;;;14.00;9.02;;;18.30;99.90;;;;;;5030345;28;20017;-76
2023/08/11 03:20:09;;;;;;;12.98;7.78;;;18.30;99.90;;;;;;5031841;28;20026;-76
2023/08/11 03:22:34;;;;;;;11.10;7.93;;;18.30;99.90;;;;;;5030751;28;20466;-76
2023/08/11 03:25:00;;;;;;;11.95;7.70;;;18.30;99.90;;;;;;5031636;28;20036;-76
2023/08/11 03:27:26;;;;;;;8.00;7.20;;;18.30;99.90;;;;;;5031824;28;20052;-76
2023/08/11 03:29:51;;;;;;;47.85;10.77;;;18.30;99.90;;;;;;5031643;28;20397;-76
2023/08/11 03:32:17;;;;;;;20.52;9.73;;;18.30;99.90;;;;;;5031600;28;20437;-76
2023/08/11 03:34:42;;;;;;;30.50;9.27;;;18.20;99.90;;;;;;5031777;28;20603;-76
2023/08/11 03:37:08;;;;;;;15.07;8.43;;;18.30;99.90;;;;;;5031781;28;20517;-76
2023/08/11 03:39:34;;;;;;;11.23;8.98;;;18.20;99.90;;;;;;5031338;28;20548;-76
2023/08/11 03:41:59;;;;;;;17.05;10.68;;;18.20;99.90;;;;;;5030483;28;20035;-76
2023/08/11 03:44:25;;;;;;;18.35;10.52;;;18.20;99.90;;;;;;5031674;28;20025;-76
2023/08/11 03:46:51;;;;;;;16.30;11.85;;;18.20;99.90;;;;;;5031372;28;20079;-77
2023/08/11 03:49:17;;;;;;;22.27;11.45;;;18.20;99.90;;;;;;5031597;28;20092;-76
2023/08/11 03:51:42;;;;;;;18.73;11.75;;;18.20;99.90;;;;;;5030001;28;20045;-76
2023/08/11 03:54:08;;;;;;;12.43;9.38;;;18.10;99.90;;;;;;5050249;28;20593;-76
2023/08/11 03:56:34;;;;;;;11.32;9.85;;;18.10;99.90;;;;;;5035226;28;20087;-76
2023/08/11 03:59:00;;;;;;;10.70;8.85;;;18.10;99.90;;;;;;5035055;28;20044;-76
2023/08/11 04:01:26;;;;;;;13.07;9.77;;;18.10;99.90;;;;;;5034938;28;20017;-77
2023/08/11 04:03:52;;;;;;;16.90;10.25;;;18.10;99.90;;;;;;5033287;28;20094;-76
2023/08/11 04:06:17;;;;;;;16.55;8.85;;;18.10;99.90;;;;;;5034833;28;20064;-76
2023/08/11 04:08:44;;;;;;;18.27;10.10;;;18.10;99.90;;;;;;5034624;28;20053;-76
2023/08/11 04:11:09;;;;;;;14.30;10.60;;;18.10;99.90;;;;;;5034905;28;20047;-76
2023/08/11 04:13:35;;;;;;;14.50;11.85;;;18.10;99.90;;;;;;5035029;28;20534;-76
2023/08/11 04:16:01;;;;;;;15.13;10.80;;;18.10;99.90;;;;;;5035004;28;20087;-76
2023/08/11 04:18:27;;;;;;;19.35;10.82;;;18.10;99.90;;;;;;5034507;28;20026;-76
2023/08/11 04:20:53;;;;;;;19.27;12.32;;;18.10;99.90;;;;;;5034588;28;20030;-76
2023/08/11 04:23:18;;;;;;;17.23;11.52;;;18.00;99.90;;;;;;5033457;28;20025;-76
2023/08/11 04:25:44;;;;;;;17.30;12.32;;;18.00;99.90;;;;;;5034692;28;20034;-76
2023/08/11 04:28:10;;;;;;;18.15;12.45;;;18.00;99.90;;;;;;5034401;28;20025;-76
2023/08/11 04:30:37;;;;;;;17.15;11.93;;;18.00;99.90;;;;;;5033215;28;20490;-76
2023/08/11 04:33:03;;;;;;;15.82;12.13;;;18.00;99.90;;;;;;5034619;28;20020;-76
2023/08/11 04:35:29;;;;;;;17.15;11.07;;;17.90;99.90;;;;;;5034420;28;20029;-76
2023/08/11 04:37:55;;;;;;;11.23;9.25;;;17.90;99.90;;;;;;5034362;28;20044;-76
2023/08/11 04:40:20;;;;;;;16.15;10.65;;;17.80;99.90;;;;;;5034309;28;20104;-76
2023/08/11 04:42:46;;;;;;;15.88;10.27;;;17.80;99.90;;;;;;5034131;28;20033;-76
2023/08/11 04:45:14;;;;;;;16.20;10.63;;;17.80;99.90;;;;;;5049732;28;20040;-76
2023/08/11 04:47:41;;;;;;;19.17;10.40;;;17.80;99.90;;;;;;5034138;28;20083;-77
2023/08/11 04:50:11;;;;;;;17.10;10.75;;;17.90;99.90;;;;;;5033927;28;20414;-77
2023/08/11 04:52:37;;;;;;;14.20;10.38;;;17.80;99.90;;;;;;5030607;28;20429;-75
2023/08/11 04:55:04;;;;;;;14.43;10.52;;;17.70;99.90;;;;;;5024013;28;20034;-76
2023/08/11 04:57:30;;;;;;;16.20;11.07;;;17.70;99.90;;;;;;5014330;28;20025;-75
2023/08/11 04:59:55;;;;;;;13.77;11.63;;;17.70;99.90;;;;;;5013968;28;20120;-75
2023/08/11 05:02:21;;;;;;;18.08;10.80;;;17.70;99.90;;;;;;5014156;28;20022;-74
2023/08/11 05:04:47;;;;;;;17.60;10.88;;;17.60;99.90;;;;;;5011743;28;20033;-73
2023/08/11 05:07:13;;;;;;;16.70;10.52;;;17.60;99.90;;;;;;5013666;28;20168;-74
2023/08/11 05:09:39;;;;;;;16.63;10.57;;;17.70;99.90;;;;;;5024563;28;20041;-74
2023/08/11 05:12:05;;;;;;;15.00;10.75;;;17.70;99.90;;;;;;5027569;28;20497;-75
2023/08/11 05:14:31;;;;;;;18.13;11.30;;;17.70;99.90;;;;;;5018279;28;20030;-74
2023/08/11 05:16:57;;;;;;;14.85;10.75;;;17.70;99.90;;;;;;5013831;28;20704;-75
2023/08/11 05:19:22;;;;;;;19.08;10.80;;;17.70;99.90;;;;;;5013631;28;20026;-74
2023/08/11 05:21:49;;;;;;;18.15;11.00;;;17.70;99.90;;;;;;5013929;28;20025;-74
2023/08/11 05:24:14;;;;;;;15.77;9.90;;;17.60;99.90;;;;;;5013985;28;20382;-74
2023/08/11 05:26:40;;;;;;;14.65;10.02;;;17.60;99.90;;;;;;5013807;28;20026;-74
2023/08/11 05:29:06;;;;;;;16.58;10.05;;;17.60;99.90;;;;;;5013392;28;20427;-74
2023/08/11 05:31:32;;;;;;;16.58;9.98;;;17.70;99.90;;;;;;5013671;28;20044;-74
2023/08/11 05:33:58;;;;;;;14.88;9.20;;;17.60;99.90;;;;;;5013339;28;20029;-75
2023/08/11 05:36:24;;;;;;;11.05;8.13;;;17.70;99.90;;;;;;5031760;28;20081;-75
2023/08/11 05:38:50;;;;;;;11.60;8.73;;;17.70;99.90;;;;;;5031649;28;20052;-75
2023/08/11 05:41:16;;;;;;;11.98;9.00;;;17.70;99.90;;;;;;5033664;28;20052;-74
2023/08/11 05:43:42;;;;;;;17.00;9.20;;;17.70;99.90;;;;;;5033315;28;20474;-74
2023/08/11 05:46:08;;;;;;;18.73;10.00;;;17.70;99.90;;;;;;5030516;28;20036;-74
2023/08/11 05:48:37;;;;;;;10.82;8.95;;;17.70;99.90;;;;;;5031380;28;20036;-75
2023/08/11 05:51:04;;;;;;;12.80;10.07;;;17.70;99.90;;;;;;5033050;28;20026;-74
2023/08/11 05:53:30;;;;;;;13.20;9.48;;;17.80;99.90;;;;;;5033156;28;20025;-75
2023/08/11 05:55:56;;;;;;;15.68;10.70;;;17.80;99.90;;;;;;5032881;28;20034;-75
2023/08/11 05:58:22;;;;;;;14.30;9.40;;;17.80;99.90;;;;;;5032858;28;20044;-75
2023/08/11 06:00:48;;;;;;;11.23;9.38;;;17.80;99.90;;;;;;5021368;28;20037;-75
2023/08/11 06:03:14;;;;;;;13.75;9.77;;;17.80;99.90;;;;;;5013018;28;20022;-75
2023/08/11 06:05:40;;;;;;;17.23;9.68;;;17.90;99.90;;;;;;5029066;28;20462;-75
2023/08/11 06:08:06;;;;;;;15.38;8.13;;;17.90;99.90;;;;;;5032828;28;20017;-77
2023/08/11 06:10:33;;;;;;;12.05;9.77;;;17.90;99.90;;;;;;5030042;28;20041;-76
2023/08/11 06:12:58;;;;;;;14.98;9.18;;;17.90;99.90;;;;;;5012898;28;20025;-76
2023/08/11 06:15:24;;;;;;;10.35;7.53;;;17.90;99.90;;;;;;5028648;28;20040;-75
2023/08/11 06:17:50;;;;;;;11.15;8.40;;;18.00;99.90;;;;;;5030829;28;20029;-76
2023/08/11 06:20:19;;;;;;;13.85;8.90;;;18.00;99.90;;;;;;5032520;28;20033;-75
2023/08/11 06:22:45;;;;;;;14.52;8.57;;;18.10;99.90;;;;;;5013824;28;20356;-75
2023/08/11 06:25:15;;;;;;;13.45;8.73;;;18.10;99.90;;;;;;5027876;28;20033;-75
2023/08/11 06:27:44;;;;;;;15.55;9.15;;;18.10;99.90;;;;;;5012644;28;20097;-76
2023/08/11 06:30:10;;;;;;;13.63;8.00;;;18.10;99.90;;;;;;5022929;28;20060;-75
2023/08/11 06:32:37;;;;;;;20.45;9.85;;;18.10;99.90;;;;;;5032234;28;20060;-75
2023/08/11 06:35:04;;;;;;;13.15;7.93;;;18.20;99.90;;;;;;5014990;28;20105;-75
2023/08/11 06:37:30;;;;;;;14.23;8.15;;;18.20;99.90;;;;;;5031342;28;20026;-75
2023/08/11 06:39:58;;;;;;;14.07;7.53;;;18.30;99.90;;;;;;5032085;28;20040;-76
2023/08/11 06:42:25;;;;;;;11.90;8.13;;;18.30;99.90;;;;;;5032198;28;20033;-76
2023/08/11 06:44:51;;;;;;;12.25;8.13;;;18.30;99.90;;;;;;5026801;28;20033;-76
2023/08/11 06:47:16;;;;;;;14.77;7.85;;;18.40;99.90;;;;;;5016738;28;20034;-75
2023/08/11 06:49:42;;;;;;;12.77;7.97;;;18.40;99.90;;;;;;5031269;28;20544;-75
2023/08/11 06:52:08;;;;;;;13.02;8.82;;;18.40;99.90;;;;;;5029675;28;20068;-73
2023/08/11 06:54:34;;;;;;;12.18;8.15;;;18.40;99.90;;;;;;5032207;28;20021;-73
2023/08/11 06:57:03;;;;;;;9.48;7.25;;;18.50;99.90;;;;;;5032071;28;20028;-75
2023/08/11 06:59:29;;;;;;;11.85;7.50;;;18.60;99.90;;;;;;5023083;28;20425;-74
2023/08/11 07:01:55;;;;;;;11.82;8.32;;;18.70;99.90;;;;;;5027138;28;20034;-73
2023/08/11 07:04:21;;;;;;;9.98;7.15;;;18.90;99.90;;;;;;5012211;28;20061;-74
2023/08/11 07:06:47;;;;;;;11.68;6.13;;;18.90;99.90;;;;;;5012145;28;20185;-74
2023/08/11 07:09:13;;;;;;;11.57;7.00;;;19.00;99.90;;;;;;5019508;28;20465;-74
2023/08/11 07:11:38;;;;;;;8.93;6.00;;;19.10;99.90;;;;;;5031883;28;20394;-74
2023/08/11 07:14:05;;;;;;;9.63;6.78;;;19.20;99.90;;;;;;5031833;28;20034;-75
2023/08/11 07:16:30;;;;;;;9.80;6.65;;;19.40;99.90;;;;;;5031627;28;20021;-74
2023/08/11 07:18:56;;;;;;;8.73;6.60;;;19.50;99.90;;;;;;5031702;28;20033;-74
2023/08/11 07:21:22;;;;;;;9.93;6.35;;;19.50;99.90;;;;;;5028183;28;20159;-74
2023/08/11 07:23:48;;;;;;;11.82;5.70;;;19.70;99.90;;;;;;5032611;28;20048;-74
2023/08/11 07:26:13;;;;;;;14.68;6.00;;;19.70;99.90;;;;;;5024292;28;20087;-74
2023/08/11 07:28:40;;;;;;;7.65;4.90;;;19.90;99.90;;;;;;5027142;28;20420;-75
2023/08/11 07:31:06;;;;;;;11.57;6.00;;;20.00;99.90;;;;;;5035536;28;20036;-75
2023/08/11 07:33:31;;;;;;;12.85;5.97;;;20.10;99.90;;;;;;5031411;28;20026;-75
2023/08/11 07:35:57;;;;;;;9.05;4.88;;;20.30;99.90;;;;;;5034529;28;20034;-75
2023/08/11 07:38:23;;;;;;;7.57;5.22;;;20.40;99.90;;;;;;5023251;28;20136;-74
2023/08/11 07:40:48;;;;;;;7.82;4.88;;;20.40;99.90;;;;;;5026149;28;20042;-74
2023/08/11 07:43:14;;;;;;;8.48;5.15;;;20.50;99.90;;;;;;5015780;28;20053;-74
2023/08/11 07:45:40;;;;;;;5.97;4.75;;;20.60;99.90;;;;;;5023721;28;20076;-74
2023/08/11 07:48:06;;;;;;;7.03;4.80;;;20.70;99.90;;;;;;5021870;28;20101;-74
2023/08/11 07:50:35;;;;;;;10.43;4.57;;;20.80;99.90;;;;;;5015476;28;20038;-74
2023/08/11 07:53:02;;;;;;;5.53;4.45;;;21.00;99.90;;;;;;5015470;28;20026;-74
2023/08/11 07:55:27;;;;;;;17.65;5.68;;;21.10;99.90;;;;;;5015560;28;20510;-75
2023/08/11 07:57:53;;;;;;;15.80;4.95;;;21.30;99.90;;;;;;5019981;28;20046;-75
2023/08/11 08:00:24;;;;;;;11.38;4.32;;;21.40;99.90;;;;;;5030410;28;20497;-75
2023/08/11 08:02:51;;;;;;;8.07;4.50;;;21.50;99.90;;;;;;5031760;28;20061;-77
2023/08/11 08:05:17;;;;;;;6.60;4.40;;;21.70;99.90;;;;;;5033140;28;20025;-77
2023/08/11 08:07:43;;;;;;;4.72;3.90;;;21.90;99.90;;;;;;5015188;28;20104;-76
2023/08/11 08:10:09;;;;;;;4.97;4.30;;;22.00;99.90;;;;;;5045458;28;20157;-76
2023/08/11 08:12:40;;;;;;;6.13;4.00;;;22.10;99.90;;;;;;5034629;28;20025;-75
2023/08/11 08:15:09;;;;;;;4.88;4.05;;;22.20;99.90;;;;;;5033299;28;20112;-76
2023/08/11 08:17:35;;;;;;;7.22;3.50;;;22.40;99.90;;;;;;5033237;28;20112;-75
2023/08/11 08:20:01;;;;;;;7.07;3.88;;;22.60;99.90;;;;;;5034760;28;20025;-75
2023/08/11 08:22:27;;;;;;;4.53;3.47;;;22.60;99.90;;;;;;5022835;28;20560;-76
2023/08/11 08:24:53;;;;;;;6.97;3.55;;;22.70;99.90;;;;;;5023915;28;20021;-75
2023/08/11 08:27:24;;;;;;;7.35;3.50;;;22.90;99.90;;;;;;5034328;28;20155;-76
2023/08/11 08:29:53;;;;;;;9.00;4.32;;;23.00;99.90;;;;;;5032873;28;20037;-72
2023/08/11 08:32:22;;;;;;;8.07;4.15;;;23.10;99.90;;;;;;5034532;28;20033;-79
2023/08/11 08:34:48;;;;;;;10.80;3.70;;;23.20;99.90;;;;;;5023918;28;20030;-79
2023/08/11 08:37:21;;;;;;;4.15;3.58;;;23.20;99.90;;;;;;5017214;28;20018;-82
2023/08/11 08:39:46;;;;;;;;;;;23.40;99.90;;;;;;5034515;28;20113;-81
2023/08/11 08:42:14;;;;;;;10.80;3.40;;;23.50;99.90;;;;;;5034342;28;20055;-80
2023/08/11 08:44:41;;;;;;;8.40;3.47;;;23.60;99.90;;;;;;5034010;28;20048;-79
2023/08/11 08:47:09;;;;;;;5.10;3.33;;;23.70;99.90;;;;;;5022822;28;20026;-82
2023/08/11 08:49:37;;;;;;;4.93;3.00;;;23.80;99.90;;;;;;5014287;28;20034;-79
2023/08/11 08:52:05;;;;;;;3.97;3.35;;;23.90;99.90;;;;;;5032216;28;20026;-83
2023/08/11 08:54:31;;;;;;;3.92;3.25;;;24.10;99.90;;;;;;5029653;28;20057;-82
2023/08/11 08:56:59;;;;;;;6.43;3.63;;;24.20;99.90;;;;;;5030796;28;20044;-83
2023/08/11 08:59:25;;;;;;;4.43;3.13;;;24.40;99.90;;;;;;5034065;28;20037;-82
2023/08/11 09:01:50;;;;;;;5.32;3.33;;;24.50;99.90;;;;;;5034251;28;20026;-83
2023/08/11 09:04:18;;;;;;;3.22;2.92;;;24.70;99.90;;;;;;5033998;28;20030;-82
2023/08/11 09:06:44;;;;;;;5.20;2.80;;;24.80;99.90;;;;;;5033934;28;20048;-82
2023/08/11 09:09:10;;;;;;;5.13;2.80;;;25.00;99.90;;;;;;5033470;28;20486;-84
2023/08/11 09:11:38;;;;;;;5.70;3.03;;;25.10;99.90;;;;;;5033768;28;20425;-78
2023/08/11 09:14:07;;;;;;;4.65;2.83;;;25.30;99.90;;;;;;5033420;28;20052;-77
2023/08/11 09:16:37;;;;;;;3.90;3.08;;;25.50;99.90;;;;;;5033691;28;20029;-77
2023/08/11 09:19:04;;;;;;;5.18;2.60;;;25.60;99.90;;;;;;5030726;28;20095;-77
2023/08/11 09:21:31;;;;;;;4.57;3.03;;;25.80;99.90;;;;;;5014415;28;20084;-77
2023/08/11 09:23:57;;;;;;;4.70;3.50;;;26.00;99.90;;;;;;5013745;28;20076;-76
2023/08/11 09:26:26;;;;;;;6.63;2.85;;;26.20;99.90;;;;;;5028928;28;20030;-77
2023/08/11 09:28:53;;;;;;;7.03;3.08;;;26.30;99.90;;;;;;5013391;28;20042;-76
2023/08/11 09:31:25;;;;;;;4.00;2.78;;;26.30;99.90;;;;;;5013806;28;20101;-77
2023/08/11 09:33:52;;;;;;;4.75;2.83;;;26.40;99.90;;;;;;5019148;28;20037;-77
2023/08/11 09:36:18;;;;;;;4.43;2.97;;;26.30;99.90;;;;;;5033421;28;20045;-76
2023/08/11 09:38:48;;;;;;;4.50;2.97;;;26.50;99.90;;;;;;5032951;28;20075;-76
2023/08/11 09:41:15;;;;;;;4.40;2.78;;;26.60;99.90;;;;;;5033585;28;20045;-77
2023/08/11 09:43:48;;;;;;;4.75;2.72;;;26.80;99.90;;;;;;5033052;28;20032;-77
2023/08/11 09:46:15;;;;;;;3.72;3.10;;;26.90;99.90;;;;;;5033098;28;20075;-76
2023/08/11 09:48:41;;;;;;;5.43;2.83;;;26.90;99.90;;;;;;5032788;28;20069;-76
2023/08/11 09:51:10;;;;;;;7.65;3.10;;;27.00;99.90;;;;;;5032362;28;20021;-79
2023/08/11 09:53:45;;;;;;;6.13;2.70;;;27.10;99.90;;;;;;5033035;28;20028;-77
2023/08/11 09:56:16;;;;;;;6.30;2.78;;;27.30;99.90;;;;;;5032685;28;20051;-77
2023/08/11 09:58:45;;;;;;;3.15;2.50;;;27.30;99.90;;;;;;5031542;28;20613;-77
2023/08/11 10:01:12;;;;;;;6.80;2.83;;;27.60;99.90;;;;;;5033012;28;20091;-77
2023/08/11 10:03:47;;;;;;;6.20;3.00;;;27.60;99.90;;;;;;5032748;28;20022;-78
2023/08/11 10:06:27;;;;;;;3.35;3.03;;;27.60;99.90;;;;;;5032830;28;20037;-77
2023/08/11 10:08:57;;;;;;;3.63;2.22;;;27.60;99.90;;;;;;5030868;28;20029;-77
2023/08/11 10:11:25;;;;;;;5.93;2.70;;;27.70;99.90;;;;;;5032825;28;20083;-76
2023/08/11 10:13:52;;;;;;;7.25;2.83;;;27.90;99.90;;;;;;5032699;28;20375;-76
2023/08/11 10:16:18;;;;;;;4.47;2.33;;;28.00;99.90;;;;;;5032933;28;20056;-78
2023/08/11 10:18:45;;;;;;;4.07;2.50;;;28.00;99.90;;;;;;5032279;28;20100;-77
2023/08/11 10:21:12;;;;;;;6.75;2.47;;;28.00;99.90;;;;;;5032649;28;20029;-77
2023/08/11 10:23:38;;;;;;;4.60;2.80;;;28.10;99.90;;;;;;5032277;28;20083;-78
2023/08/11 10:26:04;;;;;;;6.75;3.15;;;28.20;99.90;;;;;;5031188;28;20030;-76
2023/08/11 10:28:30;;;;;;;4.15;2.25;;;28.30;99.90;;;;;;5031119;28;20664;-77
2023/08/11 10:31:01;;;;;;;32.55;5.45;;;28.40;99.90;;;;;;5030900;28;20063;-78
2023/08/11 10:33:31;;;;;;;6.03;2.40;;;28.50;99.90;;;;;;5032642;28;20381;-78
2023/08/11 10:36:01;;;;;;;30.02;7.70;;;28.50;99.90;;;;;;5030967;28;20363;-77
2023/08/11 10:38:31;;;;;;;3.55;1.95;;;28.70;99.90;;;;;;5032013;28;20026;-77
2023/08/11 10:41:10;;;;;;;9.35;3.05;;;28.70;99.90;;;;;;5027587;28;20021;-77
2023/08/11 10:43:40;;;;;;;3.80;3.15;;;28.90;99.90;;;;;;5047455;28;20056;-77
2023/08/11 10:46:24;;;;;;;22.52;9.93;;;29.00;99.90;;;;;;5013338;28;20060;-78
2023/08/11 10:48:51;;;;;;;14.55;7.32;;;29.10;99.90;;;;;;5011649;28;20046;-77
2023/08/11 10:51:38;;;;;;;4.97;3.60;;;29.10;99.90;;;;;;5011167;28;20034;-78
2023/08/11 10:54:06;;;;;;;3.72;2.30;;;29.00;99.90;;;;;;5012041;28;20049;-78
2023/08/11 10:56:43;;;;;;;9.35;2.40;;;29.10;99.90;;;;;;5012235;28;20474;-77
2023/08/11 10:59:22;;;;;;;5.65;3.22;;;29.20;99.90;;;;;;5029883;28;20103;-77
2023/08/11 11:01:53;;;;;;;5.22;2.80;;;29.30;99.90;;;;;;5033386;28;20033;-80
2023/08/11 11:04:21;;;;;;;4.68;2.75;;;29.20;99.90;;;;;;5035955;28;20097;-79
2023/08/11 11:06:48;;;;;;;4.03;2.67;;;29.20;99.90;;;;;;5035868;28;20057;-77
2023/08/11 11:09:15;;;;;;;2.60;2.40;;;29.40;99.90;;;;;;5032467;28;20088;-79
2023/08/11 11:11:41;;;;;;;2.78;2.53;;;29.40;99.90;;;;;;5035862;28;20113;-78
2023/08/11 11:14:09;;;;;;;4.45;2.67;;;29.40;99.90;;;;;;5036102;28;20021;-79
2023/08/11 11:16:35;;;;;;;4.18;2.70;;;29.60;99.90;;;;;;5034456;28;20382;-79
2023/08/11 11:19:03;;;;;;;3.05;2.63;;;29.60;99.90;;;;;;5034380;28;20048;-79
2023/08/11 11:21:29;;;;;;;3.58;2.60;;;29.70;99.90;;;;;;5034299;28;20021;-77
2023/08/11 11:23:55;;;;;;;4.55;2.78;;;29.70;99.90;;;;;;5035338;28;20417;-76
2023/08/11 11:26:26;;;;;;;4.90;2.70;;;29.70;99.90;;;;;;5035702;28;20063;-76
2023/08/11 11:28:53;;;;;;;4.53;2.72;;;29.90;99.90;;;;;;5034175;28;20026;-76
2023/08/11 11:31:21;;;;;;;3.05;2.70;;;30.10;99.90;;;;;;5034722;28;20471;-76
2023/08/11 11:33:49;;;;;;;3.03;2.45;;;30.20;99.90;;;;;;5028450;28;20057;-75
2023/08/11 11:36:18;;;;;;;4.13;2.83;;;30.30;99.90;;;;;;5024213;28;20080;-76
2023/08/11 11:38:45;;;;;;;3.60;2.25;;;30.30;99.90;;;;;;5033799;28;20028;-76
2023/08/11 11:41:16;;;;;;;4.22;2.50;;;30.10;99.90;;;;;;5030101;28;20040;-76
2023/08/11 11:43:45;;;;;;;3.65;2.70;;;30.10;99.90;;;;;;5034954;28;20053;-77
2023/08/11 11:46:14;;;;;;;5.97;2.88;;;30.20;99.90;;;;;;5033734;28;20108;-78
2023/08/11 11:48:51;;;;;;;3.80;2.80;;;30.10;99.90;;;;;;5035040;28;20057;-77
2023/08/11 11:51:23;;;;;;;4.68;2.50;;;29.80;99.90;;;;;;5034151;28;20092;-77
2023/08/11 11:53:51;;;;;;;4.43;2.58;;;29.60;99.90;;;;;;5015409;28;20029;-77
2023/08/11 11:56:18;;;;;;;4.70;1.88;;;29.50;99.90;;;;;;5022906;28;20399;-77
2023/08/11 11:58:47;;;;;;;3.28;2.30;;;29.60;99.90;;;;;;5023974;28;20025;-76
2023/08/11 12:01:16;;;;;;;4.38;2.58;;;29.60;99.90;;;;;;5034273;28;20025;-77
2023/08/11 12:03:46;;;;;;;4.22;2.80;;;29.70;99.90;;;;;;5053018;28;20031;-77
2023/08/11 12:06:13;;;;;;;3.05;2.53;;;29.80;99.90;;;;;;5052306;28;20481;-79
2023/08/11 12:08:42;;;;;;;2.85;2.63;;;29.60;99.90;;;;;;5046963;28;20104;-78
2023/08/11 12:11:11;;;;;;;6.20;2.65;;;29.80;99.90;;;;;;5015079;28;20069;-78
2023/08/11 12:13:41;;;;;;;2.53;2.30;;;30.00;99.90;;;;;;5014541;28;20360;-78
2023/08/11 12:16:08;;;;;;;4.28;2.67;;;29.90;99.90;;;;;;5013727;28;20109;-78
2023/08/11 12:18:35;;;;;;;3.03;2.50;;;30.00;99.90;;;;;;5015132;28;20052;-77
2023/08/11 12:21:02;;;;;;;6.18;2.50;;;30.10;99.90;;;;;;5014862;28;20072;-77
2023/08/11 12:23:28;;;;;;;6.95;2.95;;;30.10;99.90;;;;;;5015483;28;20037;-78
2023/08/11 12:25:54;;;;;;;3.70;2.90;;;30.00;99.90;;;;;;5014937;28;20025;-77
2023/08/11 12:28:20;;;;;;;2.88;2.58;;;30.00;99.90;;;;;;5014740;28;20507;-78
2023/08/11 12:30:46;;;;;;;3.03;2.50;;;30.00;99.90;;;;;;5014950;28;20034;-78
2023/08/11 12:33:12;;;;;;;4.60;2.30;;;29.70;99.90;;;;;;5013618;28;20022;-78
2023/08/11 12:35:38;;;;;;;3.65;2.80;;;29.70;99.90;;;;;;5014715;28;20533;-78
2023/08/11 12:38:12;;;;;;;4.78;2.42;;;29.80;99.90;;;;;;5014801;28;20056;-77
2023/08/11 12:40:41;;;;;;;3.00;2.70;;;29.80;99.90;;;;;;5015024;28;20077;-78